createdAt,value
2023-03-14T00:02:17.358Z,7.60
2023-03-14T00:07:18.181Z,7.60
2023-03-14T00:09:48.118Z,7.60
2023-03-14T00:12:18.141Z,7.60
2023-03-14T00:14:48.029Z,7.60
2023-03-14T00:17:20.531Z,7.50
2023-03-14T00:19:53.243Z,7.60
2023-03-14T00:22:23.531Z,7.60
2023-03-14T00:24:54.421Z,7.60
2023-03-14T00:27:24.316Z,7.50
2023-03-14T00:29:54.233Z,7.50
2023-03-14T00:32:27.253Z,7.60
2023-03-14T00:34:57.155Z,7.50
2023-03-14T00:37:27.241Z,7.50
2023-03-14T00:45:01.682Z,7.50
2023-03-14T00:47:34.276Z,7.50
2023-03-14T00:52:34.755Z,7.50
2023-03-14T00:55:04.665Z,7.50
2023-03-14T00:57:34.740Z,7.50
2023-03-14T01:00:06.964Z,7.50
2023-03-14T01:02:39.583Z,7.50
2023-03-14T01:05:11.305Z,7.50
2023-03-14T01:07:41.635Z,7.50
2023-03-14T01:10:13.702Z,7.50
2023-03-14T01:12:43.767Z,7.50
2023-03-14T01:15:14.402Z,7.50
2023-03-14T01:17:46.984Z,7.50
2023-03-14T01:20:18.642Z,7.50
2023-03-14T01:22:48.654Z,7.40
2023-03-14T01:25:20.227Z,7.50
2023-03-14T01:30:21.072Z,7.50
2023-03-14T01:32:53.699Z,8.30
2023-03-14T01:35:23.832Z,7.50
2023-03-14T01:37:54.248Z,7.50
2023-03-14T01:43:00.393Z,7.30
2023-03-14T01:46:15.409Z,7.40
2023-03-14T01:48:55.083Z,7.80
2023-03-14T01:51:29.418Z,7.40
2023-03-14T01:54:07.683Z,7.40
2023-03-14T01:56:38.939Z,7.40
2023-03-14T01:59:11.715Z,7.40
2023-03-14T02:01:44.896Z,7.40
2023-03-14T02:04:19.546Z,7.40
2023-03-14T02:06:55.348Z,7.40
2023-03-14T02:09:29.487Z,7.40
2023-03-14T02:12:00.182Z,7.50
2023-03-14T02:14:48.921Z,7.50
2023-03-14T02:17:26.777Z,7.50
2023-03-14T02:20:13.560Z,7.40
2023-03-14T02:22:48.796Z,7.40
2023-03-14T02:25:25.433Z,7.40
2023-03-14T02:27:58.813Z,7.50
2023-03-14T02:30:31.749Z,7.50
2023-03-14T02:33:04.995Z,7.50
2023-03-14T02:35:39.593Z,7.50
2023-03-14T02:38:18.806Z,7.50
2023-03-14T02:40:49.673Z,7.70
2023-03-14T02:43:22.906Z,7.30
2023-03-14T02:45:59.532Z,7.50
2023-03-14T02:48:33.787Z,7.30
2023-03-14T02:51:04.777Z,7.50
2023-03-14T02:53:36.618Z,7.40
2023-03-14T02:56:12.883Z,7.70
2023-03-14T02:58:45.553Z,7.30
2023-03-14T03:04:03.050Z,7.60
2023-03-14T03:06:32.986Z,7.40
2023-03-14T03:09:04.592Z,7.30
2023-03-14T03:11:35.444Z,7.30
2023-03-14T03:14:10.270Z,7.30
2023-03-14T03:16:40.375Z,7.30
2023-03-14T03:24:11.026Z,7.20
2023-03-14T03:26:41.358Z,7.20
2023-03-14T03:29:16.282Z,7.10
2023-03-14T03:31:46.540Z,7.30
2023-03-14T03:34:17.738Z,7.10
2023-03-14T03:41:51.570Z,7.00
2023-03-14T03:44:25.263Z,6.70
2023-03-14T03:46:55.467Z,7.20
2023-03-14T03:49:25.493Z,6.90
2023-03-14T03:54:26.092Z,7.40
2023-03-14T03:56:56.342Z,7.00
2023-03-14T03:59:29.033Z,6.90
2023-03-14T04:01:59.238Z,6.90
2023-03-14T04:04:29.488Z,7.10
2023-03-14T04:06:59.740Z,6.90
2023-03-14T04:09:29.993Z,6.90
2023-03-14T04:12:14.405Z,7.00
2023-03-14T04:15:08.024Z,7.10
2023-03-14T04:17:39.376Z,6.70
2023-03-14T04:20:12.383Z,6.80
2023-03-14T04:22:44.743Z,6.70
2023-03-14T04:25:15.394Z,7.50
2023-03-14T04:27:52.904Z,6.80
2023-03-14T04:30:29.851Z,6.80
2023-03-14T04:33:02.839Z,6.70
2023-03-14T04:35:35.205Z,6.80
2023-03-14T04:38:10.613Z,6.80
2023-03-14T04:40:41.058Z,6.70
2023-03-14T04:43:12.136Z,6.80
2023-03-14T04:45:51.050Z,6.70
2023-03-14T04:48:21.817Z,6.70
2023-03-14T04:50:52.299Z,6.50
2023-03-14T04:53:23.209Z,6.40
2023-03-14T04:55:57.873Z,6.60
2023-03-14T04:58:32.967Z,6.70
2023-03-14T05:01:09.822Z,6.70
2023-03-14T05:04:03.088Z,6.60
2023-03-14T05:06:59.042Z,6.60
2023-03-14T05:09:54.839Z,6.60
2023-03-14T05:12:43.547Z,6.60
2023-03-14T05:15:30.222Z,6.60
2023-03-14T05:18:23.081Z,6.60
2023-03-14T05:21:00.735Z,6.40
2023-03-14T05:23:51.690Z,6.60
2023-03-14T05:26:53.363Z,6.60
2023-03-14T05:29:43.764Z,6.50
2023-03-14T05:32:32.175Z,6.50
2023-03-14T05:35:04.711Z,6.50
2023-03-14T05:37:42.869Z,6.50
2023-03-14T05:40:33.119Z,6.40
2023-03-14T05:43:25.328Z,6.40
2023-03-14T05:46:07.440Z,6.40
2023-03-14T05:49:03.666Z,6.40
2023-03-14T05:51:56.609Z,6.40
2023-03-14T05:54:39.819Z,6.40
2023-03-14T05:57:27.995Z,6.30
2023-03-14T06:00:16.889Z,6.50
2023-03-14T06:02:59.461Z,6.20
2023-03-14T06:05:34.123Z,6.30
2023-03-14T06:08:08.422Z,6.30
2023-03-14T06:10:39.275Z,6.30
2023-03-14T06:13:09.216Z,6.40
2023-03-14T06:15:39.648Z,6.40
2023-03-14T06:18:09.821Z,6.40
2023-03-14T06:20:40.577Z,6.50
2023-03-14T06:23:15.348Z,6.40
2023-03-14T06:25:45.275Z,6.50
2023-03-14T06:28:15.321Z,6.50
2023-03-14T06:33:17.671Z,6.40
2023-03-14T06:35:48.517Z,6.50
2023-03-14T06:38:21.226Z,6.50
2023-03-14T06:40:53.405Z,6.60
2023-03-14T06:43:33.086Z,6.60
2023-03-14T06:46:03.228Z,6.70
2023-03-14T06:48:35.423Z,6.70
2023-03-14T06:51:05.697Z,6.70
2023-03-14T06:53:38.594Z,6.70
2023-03-14T06:56:10.648Z,6.70
2023-03-14T06:58:40.745Z,6.80
2023-03-14T07:01:24.533Z,6.80
2023-03-14T07:03:55.081Z,6.80
2023-03-14T07:06:26.142Z,6.80
2023-03-14T07:08:59.359Z,6.90
2023-03-14T07:11:29.677Z,6.90
2023-03-14T07:13:59.620Z,6.90
2023-03-14T07:16:30.051Z,7.00
2023-03-14T07:19:00.030Z,7.00
2023-03-14T07:21:30.031Z,7.00
2023-03-14T07:24:03.226Z,7.00
2023-03-14T07:26:35.081Z,7.10
2023-03-14T07:29:05.469Z,7.10
2023-03-14T07:31:35.840Z,7.20
2023-03-14T07:34:06.767Z,7.30
2023-03-14T07:36:40.710Z,7.30
2023-03-14T07:39:13.272Z,7.30
2023-03-14T07:41:50.875Z,7.40
2023-03-14T07:44:29.806Z,7.50
2023-03-14T07:46:59.797Z,7.50
2023-03-14T07:49:29.886Z,7.60
2023-03-14T07:52:00.143Z,7.80
2023-03-14T07:54:32.862Z,7.80
2023-03-14T07:57:02.809Z,7.80
2023-03-14T07:59:32.781Z,7.70
2023-03-14T08:02:02.991Z,7.90
2023-03-14T08:04:32.977Z,7.90
2023-03-14T08:07:02.968Z,7.90
2023-03-14T08:09:35.713Z,7.90
2023-03-14T08:12:05.652Z,8.00
2023-03-14T08:14:35.710Z,8.00
2023-03-14T08:17:06.227Z,8.10
2023-03-14T08:19:36.186Z,8.20
2023-03-14T08:22:06.163Z,8.20
2023-03-14T08:24:38.757Z,8.30
2023-03-14T08:27:10.985Z,8.40
2023-03-14T08:29:42.665Z,8.40
2023-03-14T08:32:12.953Z,8.50
2023-03-14T08:34:43.117Z,8.60
2023-03-14T08:37:23.840Z,8.70
2023-03-14T08:39:58.994Z,8.70
2023-03-14T08:42:28.962Z,8.80
2023-03-14T08:44:58.900Z,8.80
2023-03-14T08:47:28.804Z,9.00
2023-03-14T08:49:58.791Z,9.00
2023-03-14T08:52:28.978Z,8.90
2023-03-14T08:55:02.070Z,9.00
2023-03-14T08:57:31.961Z,9.20
2023-03-14T09:00:02.012Z,9.40
2023-03-14T09:02:31.966Z,9.50
2023-03-14T09:05:01.900Z,9.60
2023-03-14T09:07:31.814Z,9.70
2023-03-14T09:10:04.305Z,9.70
2023-03-14T09:12:34.411Z,9.70
2023-03-14T09:15:04.454Z,9.90
2023-03-14T09:17:34.437Z,10.00
2023-03-14T09:20:06.882Z,10.10
2023-03-14T09:22:37.117Z,10.10
2023-03-14T09:25:10.825Z,10.30
2023-03-14T09:27:40.741Z,10.40
2023-03-14T09:30:12.549Z,10.40
2023-03-14T09:32:42.501Z,10.50
2023-03-14T09:35:13.112Z,10.60
2023-03-14T09:37:43.046Z,10.60
2023-03-14T09:40:20.891Z,10.70
2023-03-14T09:42:53.906Z,11.00
2023-03-14T09:45:29.825Z,10.80
2023-03-14T09:48:01.965Z,10.70
2023-03-14T09:50:44.092Z,10.60
2023-03-14T09:53:20.262Z,10.70
2023-03-14T09:55:54.475Z,10.50
2023-03-14T09:58:26.394Z,10.50
2023-03-14T10:01:00.249Z,10.50
2023-03-14T10:03:34.993Z,10.30
2023-03-14T10:06:05.697Z,10.40
2023-03-14T10:08:35.614Z,10.40
2023-03-14T10:11:08.894Z,10.30
2023-03-14T10:13:38.820Z,10.30
2023-03-14T10:16:10.143Z,10.30
2023-03-14T10:18:40.065Z,10.30
2023-03-14T10:21:20.893Z,10.40
2023-03-14T10:23:51.091Z,10.50
2023-03-14T10:26:34.289Z,10.50
2023-03-14T10:29:07.675Z,10.40
2023-03-14T10:34:27.560Z,10.30
2023-03-14T10:37:00.319Z,10.30
2023-03-14T10:39:44.877Z,10.30
2023-03-14T10:42:20.773Z,10.40
2023-03-14T10:44:54.743Z,10.50
2023-03-14T10:47:29.365Z,10.40
2023-03-14T10:50:00.288Z,10.40
2023-03-14T10:52:57.361Z,10.30
2023-03-14T10:55:23.794Z,10.30
2023-03-14T10:57:56.873Z,10.20
2023-03-14T11:00:27.532Z,10.20
2023-03-14T11:03:08.520Z,10.20
2023-03-14T11:05:44.586Z,10.20
2023-03-14T11:08:22.410Z,10.10
2023-03-14T11:10:58.365Z,10.10
2023-03-14T11:13:37.702Z,10.10
2023-03-14T11:16:12.807Z,10.10
2023-03-14T11:19:04.748Z,10.10
2023-03-14T11:21:41.198Z,10.10
2023-03-14T11:24:36.473Z,10.20
2023-03-14T11:27:16.206Z,10.40
2023-03-14T11:29:55.973Z,10.50
2023-03-14T11:32:39.311Z,10.60
2023-03-14T11:35:20.515Z,10.60
2023-03-14T11:37:55.190Z,10.60
2023-03-14T11:40:26.911Z,10.70
2023-03-14T11:43:03.898Z,11.00
2023-03-14T11:45:39.622Z,11.20
2023-03-14T11:48:20.091Z,11.50
2023-03-14T11:50:53.654Z,11.90
2023-03-14T11:53:33.662Z,12.60
2023-03-14T11:56:03.956Z,13.30
2023-03-14T11:58:38.243Z,15.30
2023-03-14T12:01:14.329Z,13.30
2023-03-14T12:03:49.680Z,12.80
2023-03-14T12:06:23.838Z,12.30
2023-03-14T12:08:58.168Z,12.10
2023-03-14T12:11:37.057Z,12.10
2023-03-14T12:14:18.875Z,12.00
2023-03-14T12:16:58.127Z,12.00
2023-03-14T12:19:42.619Z,12.20
2023-03-14T12:22:29.672Z,12.40
2023-03-14T12:25:06.895Z,12.40
2023-03-14T12:28:15.177Z,12.30
2023-03-14T12:30:45.825Z,12.10
2023-03-14T12:33:34.342Z,11.90
2023-03-14T12:36:14.572Z,11.80
2023-03-14T12:38:56.118Z,11.80
2023-03-14T12:41:29.644Z,11.80
2023-03-14T12:43:59.562Z,11.90
2023-03-14T12:46:31.033Z,12.00
2023-03-14T12:49:11.903Z,12.00
2023-03-14T12:51:44.791Z,12.30
2023-03-14T12:54:40.416Z,12.10
2023-03-14T12:57:29.505Z,12.80
2023-03-14T13:00:01.028Z,12.80
2023-03-14T13:02:33.263Z,12.60
2023-03-14T13:05:15.615Z,12.30
2023-03-14T13:08:08.445Z,12.00
2023-03-14T13:10:51.608Z,11.80
2023-03-14T13:13:26.825Z,11.60
2023-03-14T13:15:59.491Z,11.40
2023-03-14T13:18:33.478Z,11.20
2023-03-14T13:21:09.401Z,11.10
2023-03-14T13:23:41.045Z,10.80
2023-03-14T13:26:17.660Z,10.60
2023-03-14T13:28:47.912Z,10.30
2023-03-14T13:31:26.086Z,10.20
2023-03-14T13:34:10.482Z,10.10
2023-03-14T13:36:43.142Z,9.70
2023-03-14T13:39:19.274Z,9.10
2023-03-14T13:41:50.589Z,9.30
2023-03-14T13:44:26.404Z,9.20
2023-03-14T13:47:01.841Z,9.10
2023-03-14T13:49:36.663Z,9.10
2023-03-14T13:52:32.321Z,8.80
2023-03-14T13:55:04.665Z,8.70
2023-03-14T13:57:48.210Z,8.70
2023-03-14T14:00:24.941Z,8.60
2023-03-14T14:02:55.050Z,8.40
2023-03-14T14:05:25.379Z,8.20
2023-03-14T14:07:58.211Z,8.10
2023-03-14T14:10:32.747Z,8.30
2023-03-14T14:13:06.367Z,8.00
2023-03-14T14:15:40.774Z,8.10
2023-03-14T14:18:12.819Z,8.20
2023-03-14T14:20:47.238Z,8.10
2023-03-14T14:23:26.394Z,8.10
2023-03-14T14:25:57.295Z,8.00
2023-03-14T14:28:30.539Z,8.00
2023-03-14T14:31:06.112Z,7.90
2023-03-14T14:33:43.889Z,7.90
2023-03-14T14:36:24.474Z,7.80
2023-03-14T14:39:01.215Z,7.80
2023-03-14T14:41:33.384Z,7.70
2023-03-14T14:44:03.902Z,7.60
2023-03-14T14:46:36.404Z,7.50
2023-03-14T14:49:09.996Z,7.40
2023-03-14T14:51:45.650Z,7.30
2023-03-14T14:54:20.906Z,7.10
2023-03-14T14:56:53.080Z,7.10
2023-03-14T14:59:28.591Z,6.80
2023-03-14T15:02:03.015Z,6.40
2023-03-14T15:04:34.625Z,6.40
2023-03-14T15:07:04.600Z,6.30
2023-03-14T15:09:37.178Z,6.20
2023-03-14T15:12:07.754Z,6.10
2023-03-14T15:14:37.718Z,6.00
2023-03-14T15:17:07.766Z,5.80
2023-03-14T15:19:37.842Z,5.90
2023-03-14T15:22:09.454Z,5.90
2023-03-14T15:24:42.240Z,5.80
2023-03-14T15:27:18.629Z,5.80
2023-03-14T15:29:48.599Z,5.70
2023-03-14T15:32:20.448Z,5.80
2023-03-14T15:34:50.591Z,5.70
2023-03-14T15:37:20.887Z,5.70
2023-03-14T15:39:53.434Z,5.70
2023-03-14T15:42:23.388Z,5.60
2023-03-14T15:47:23.667Z,5.60
2023-03-14T15:49:53.557Z,5.50
2023-03-14T15:52:23.484Z,5.50
2023-03-14T15:54:55.964Z,5.40
2023-03-14T15:57:25.845Z,5.40
2023-03-14T15:59:55.940Z,5.30
2023-03-14T16:02:25.821Z,5.20
2023-03-14T16:07:26.122Z,5.20
2023-03-14T16:09:58.671Z,5.10
2023-03-14T16:12:28.729Z,5.10
2023-03-14T16:14:58.848Z,5.00
2023-03-14T16:17:29.592Z,5.00
2023-03-14T16:19:59.668Z,5.10
2023-03-14T16:22:34.376Z,5.20
2023-03-14T16:25:07.913Z,5.00
2023-03-14T16:27:37.864Z,5.00
2023-03-14T16:30:08.895Z,5.00
2023-03-14T16:32:39.638Z,4.90
2023-03-14T16:35:10.733Z,4.90
2023-03-14T16:37:40.651Z,4.90
2023-03-14T16:40:15.063Z,5.00
2023-03-14T16:45:34.738Z,5.00
2023-03-14T16:48:04.661Z,5.10
2023-03-14T16:50:34.602Z,5.10
2023-03-14T16:53:05.197Z,5.60
2023-03-14T16:55:43.037Z,5.00
2023-03-14T16:58:13.719Z,5.00
2023-03-14T17:00:43.678Z,5.00
2023-03-14T17:03:13.725Z,5.00
2023-03-14T17:05:49.603Z,5.00
2023-03-14T17:08:21.665Z,5.00
2023-03-14T17:10:55.032Z,5.00
2023-03-14T17:13:25.999Z,5.00
2023-03-14T17:15:57.386Z,5.90
2023-03-14T17:20:58.943Z,5.00
2023-03-14T17:23:30.508Z,5.00
2023-03-14T17:26:03.182Z,5.00
2023-03-14T17:31:08.526Z,5.00
2023-03-14T17:33:39.196Z,4.90
2023-03-14T17:36:11.387Z,4.90
2023-03-14T17:38:41.860Z,4.80
2023-03-14T17:41:16.010Z,4.60
2023-03-14T17:46:17.743Z,4.30
2023-03-14T17:48:49.417Z,4.30
2023-03-14T17:56:22.736Z,4.00
2023-03-14T18:09:01.348Z,3.80
2023-03-14T18:11:34.347Z,3.80
2023-03-14T18:15:40.852Z,3.80
2023-03-14T18:30:47.308Z,3.70
2023-03-14T18:45:50.955Z,3.70
2023-03-14T19:01:03.188Z,3.70
2023-03-14T19:03:34.359Z,3.70
2023-03-14T19:06:07.281Z,3.90
2023-03-14T19:08:38.701Z,3.70
2023-03-14T19:11:11.639Z,3.90
2023-03-14T19:13:42.706Z,3.70
2023-03-14T19:16:17.956Z,3.70
2023-03-14T19:31:22.656Z,3.60
2023-03-14T19:36:25.056Z,3.60
2023-03-14T19:38:56.258Z,3.60
2023-03-14T19:41:27.837Z,3.80
2023-03-14T19:43:58.271Z,3.50
2023-03-14T19:46:33.131Z,3.50
2023-03-14T19:54:06.018Z,3.40
2023-03-14T20:01:41.903Z,3.50
2023-03-14T20:16:49.740Z,3.40
2023-03-14T20:31:56.148Z,3.30
2023-03-14T20:47:00.752Z,3.30
2023-03-14T21:02:04.713Z,3.10
2023-03-14T21:17:08.591Z,2.90
2023-03-14T21:32:22.742Z,2.20
2023-03-14T21:47:30.952Z,1.70
2023-03-14T22:02:40.645Z,1.50
2023-03-14T22:05:13.130Z,1.60
2023-03-14T22:10:15.819Z,1.40
2023-03-14T22:17:49.117Z,1.50
2023-03-14T22:32:54.185Z,3.90
2023-03-14T22:48:00.747Z,1.30
2023-03-14T23:03:06.639Z,1.30
2023-03-14T23:18:11.602Z,1.40
2023-03-14T23:30:57.653Z,1.40
2023-03-14T23:33:31.795Z,1.40
2023-03-14T23:36:03.964Z,1.50
2023-03-14T23:38:34.833Z,1.20
2023-03-14T23:41:05.156Z,1.30
2023-03-14T23:48:38.197Z,1.20
2023-03-14T23:51:09.997Z,1.20
2023-03-14T23:56:11.557Z,-1.00
